Benito Salas Airport

Airport
ICAO code: 
SKNV
IATA Code: 
NVA
Summary
ICAO Region: 
CARSAM
Territory: 
Location: 
La Manguita, Huila Department
Serving: 
Neiva
Elevation: 
1464 ft
Coordinates: 
Aerial View: 
2° 56' 49.381" N, 75° 17' 34.164" W
Metar
Observation
SKNV 030100Z 00000KT 9999 NSC 27/21 Q1009 RMK A2980
Station
Neiva / Benito Salas
Date/Time
2021-12-03 01:00:00
Wind direction
Wind speed
00 kts
Lowest cloud amount
n/a
Temperature
27°C
Dew point
21°C
Humidity
69%
QNH
1009 hPa
Weather condition
n/a

Benito Salas Airport, locally known as La Manguita airport, is an airport that serves the city of Neiva, the capital of the Huila Department in Colombia.

Climatology

Tropical monsoon climate (Köppen climate classification Am)

Runways

Designator Length Width Surface Rops
2/20 1792 40 ASP No/No
Airport map: 
Aerial View: 

SKYbrary Partners:

Safety knowledge contributed by: